sensor_id;sensor_type;location;lat;lon;timestamp;temperature;humidity
921;DHT22;447;51.332;6.778;2024-02-28T00:02:23;8.40;99.90
921;DHT22;447;51.332;6.778;2024-02-28T00:04:53;8.30;99.90
921;DHT22;447;51.332;6.778;2024-02-28T00:07:20;8.30;99.90
921;DHT22;447;51.332;6.778;2024-02-28T00:09:51;8.40;99.90
921;DHT22;447;51.332;6.778;2024-02-28T00:12:17;8.40;99.90
921;DHT22;447;51.332;6.778;2024-02-28T00:14:43;8.30;99.90
921;DHT22;447;51.332;6.778;2024-02-28T00:17:13;8.40;99.90
921;DHT22;447;51.332;6.778;2024-02-28T00:19:39;8.10;99.90
921;DHT22;447;51.332;6.778;2024-02-28T00:22:05;8.40;99.90
921;DHT22;447;51.332;6.778;2024-02-28T00:24:31;8.30;99.90
921;DHT22;447;51.332;6.778;2024-02-28T00:26:58;8.30;99.90
921;DHT22;447;51.332;6.778;2024-02-28T00:29:26;8.30;99.90
921;DHT22;447;51.332;6.778;2024-02-28T00:31:52;8.30;99.90
921;DHT22;447;51.332;6.778;2024-02-28T00:34:23;8.20;99.90
921;DHT22;447;51.332;6.778;2024-02-28T00:36:52;8.20;99.90
921;DHT22;447;51.332;6.778;2024-02-28T00:39:20;8.20;99.90
921;DHT22;447;51.332;6.778;2024-02-28T00:41:46;8.20;99.90
921;DHT22;447;51.332;6.778;2024-02-28T00:44:14;8.20;99.90
921;DHT22;447;51.332;6.778;2024-02-28T00:46:43;8.20;99.90
921;DHT22;447;51.332;6.778;2024-02-28T00:49:10;8.20;99.90
921;DHT22;447;51.332;6.778;2024-02-28T00:51:38;8.20;99.90
921;DHT22;447;51.332;6.778;2024-02-28T00:54:04;8.10;99.90
921;DHT22;447;51.332;6.778;2024-02-28T00:56:33;8.20;99.90
921;DHT22;447;51.332;6.778;2024-02-28T00:58:59;8.20;99.90
921;DHT22;447;51.332;6.778;2024-02-28T01:01:25;8.20;99.90
921;DHT22;447;51.332;6.778;2024-02-28T01:03:51;8.10;99.90
921;DHT22;447;51.332;6.778;2024-02-28T01:06:17;8.20;99.90
921;DHT22;447;51.332;6.778;2024-02-28T01:08:43;8.30;99.90
921;DHT22;447;51.332;6.778;2024-02-28T01:11:10;8.10;99.90
921;DHT22;447;51.332;6.778;2024-02-28T01:13:38;8.10;99.90
921;DHT22;447;51.332;6.778;2024-02-28T01:16:04;8.10;99.90
921;DHT22;447;51.332;6.778;2024-02-28T01:18:31;8.10;99.90
921;DHT22;447;51.332;6.778;2024-02-28T01:20:58;8.10;99.90
921;DHT22;447;51.332;6.778;2024-02-28T01:23:28;8.10;99.90
921;DHT22;447;51.332;6.778;2024-02-28T01:25:58;8.10;99.90
921;DHT22;447;51.332;6.778;2024-02-28T01:28:29;8.10;99.90
921;DHT22;447;51.332;6.778;2024-02-28T01:30:57;8.00;99.90
921;DHT22;447;51.332;6.778;2024-02-28T01:33:27;8.10;99.90
921;DHT22;447;51.332;6.778;2024-02-28T01:35:53;8.00;99.90
921;DHT22;447;51.332;6.778;2024-02-28T01:38:19;8.00;99.90
921;DHT22;447;51.332;6.778;2024-02-28T01:40:47;8.00;99.90
921;DHT22;447;51.332;6.778;2024-02-28T01:43:14;8.00;99.90
921;DHT22;447;51.332;6.778;2024-02-28T01:45:39;8.00;99.90
921;DHT22;447;51.332;6.778;2024-02-28T01:48:10;8.00;99.90
921;DHT22;447;51.332;6.778;2024-02-28T01:50:43;8.10;99.90
921;DHT22;447;51.332;6.778;2024-02-28T01:53:12;8.00;99.90
921;DHT22;447;51.332;6.778;2024-02-28T01:55:39;8.00;99.90
921;DHT22;447;51.332;6.778;2024-02-28T01:58:06;8.00;99.90
921;DHT22;447;51.332;6.778;2024-02-28T02:00:33;8.00;99.90
921;DHT22;447;51.332;6.778;2024-02-28T02:03:02;7.90;99.90
921;DHT22;447;51.332;6.778;2024-02-28T02:05:28;7.90;99.90
921;DHT22;447;51.332;6.778;2024-02-28T02:07:57;7.90;99.90
921;DHT22;447;51.332;6.778;2024-02-28T02:10:25;7.90;99.90
921;DHT22;447;51.332;6.778;2024-02-28T02:12:51;7.90;99.90
921;DHT22;447;51.332;6.778;2024-02-28T02:15:18;7.90;99.90
921;DHT22;447;51.332;6.778;2024-02-28T02:17:44;7.90;99.90
921;DHT22;447;51.332;6.778;2024-02-28T02:20:11;7.90;99.90
921;DHT22;447;51.332;6.778;2024-02-28T02:22:40;7.90;99.90
921;DHT22;447;51.332;6.778;2024-02-28T02:25:06;7.90;99.90
921;DHT22;447;51.332;6.778;2024-02-28T02:27:32;7.90;99.90
921;DHT22;447;51.332;6.778;2024-02-28T02:30:01;7.90;99.90
921;DHT22;447;51.332;6.778;2024-02-28T02:32:27;7.80;99.90
921;DHT22;447;51.332;6.778;2024-02-28T02:34:56;7.80;99.90
921;DHT22;447;51.332;6.778;2024-02-28T02:37:22;7.80;99.90
921;DHT22;447;51.332;6.778;2024-02-28T02:39:55;7.80;99.90
921;DHT22;447;51.332;6.778;2024-02-28T02:42:26;7.90;99.90
921;DHT22;447;51.332;6.778;2024-02-28T02:44:54;7.90;99.90
921;DHT22;447;51.332;6.778;2024-02-28T02:47:23;7.90;99.90
921;DHT22;447;51.332;6.778;2024-02-28T02:49:50;7.90;99.90
921;DHT22;447;51.332;6.778;2024-02-28T02:52:16;7.70;99.90
921;DHT22;447;51.332;6.778;2024-02-28T02:54:42;7.80;99.90
921;DHT22;447;51.332;6.778;2024-02-28T02:57:10;7.80;99.90
921;DHT22;447;51.332;6.778;2024-02-28T02:59:36;7.80;99.90
921;DHT22;447;51.332;6.778;2024-02-28T03:02:02;7.80;99.90
921;DHT22;447;51.332;6.778;2024-02-28T03:04:31;7.80;99.90
921;DHT22;447;51.332;6.778;2024-02-28T03:07:00;7.80;99.90
921;DHT22;447;51.332;6.778;2024-02-28T03:09:28;7.80;99.90
921;DHT22;447;51.332;6.778;2024-02-28T03:11:54;7.70;99.90
921;DHT22;447;51.332;6.778;2024-02-28T03:14:22;7.80;99.90
921;DHT22;447;51.332;6.778;2024-02-28T03:16:51;7.70;99.90
921;DHT22;447;51.332;6.778;2024-02-28T03:19:19;7.70;99.90
921;DHT22;447;51.332;6.778;2024-02-28T03:21:47;7.70;99.90
921;DHT22;447;51.332;6.778;2024-02-28T03:24:13;7.80;99.90
921;DHT22;447;51.332;6.778;2024-02-28T03:26:39;7.80;99.90
921;DHT22;447;51.332;6.778;2024-02-28T03:29:05;7.70;99.90
921;DHT22;447;51.332;6.778;2024-02-28T03:31:31;7.80;99.90
921;DHT22;447;51.332;6.778;2024-02-28T03:33:57;7.70;99.90
921;DHT22;447;51.332;6.778;2024-02-28T03:36:28;7.70;99.90
921;DHT22;447;51.332;6.778;2024-02-28T03:38:58;7.70;99.90
921;DHT22;447;51.332;6.778;2024-02-28T03:41:27;7.70;99.90
921;DHT22;447;51.332;6.778;2024-02-28T03:43:55;7.70;99.90
921;DHT22;447;51.332;6.778;2024-02-28T03:46:23;7.70;99.90
921;DHT22;447;51.332;6.778;2024-02-28T03:48:51;7.70;99.90
921;DHT22;447;51.332;6.778;2024-02-28T03:51:17;7.70;99.90
921;DHT22;447;51.332;6.778;2024-02-28T03:53:43;7.70;99.90
921;DHT22;447;51.332;6.778;2024-02-28T03:56:09;7.70;99.90
921;DHT22;447;51.332;6.778;2024-02-28T03:58:39;7.70;99.90
921;DHT22;447;51.332;6.778;2024-02-28T04:01:07;7.70;99.90
921;DHT22;447;51.332;6.778;2024-02-28T04:03:36;7.70;99.90
921;DHT22;447;51.332;6.778;2024-02-28T04:06:04;8.20;99.90
921;DHT22;447;51.332;6.778;2024-02-28T04:08:30;7.70;99.90
921;DHT22;447;51.332;6.778;2024-02-28T04:11:01;7.70;99.90
921;DHT22;447;51.332;6.778;2024-02-28T04:13:29;7.60;99.90
921;DHT22;447;51.332;6.778;2024-02-28T04:15:58;7.60;99.90
921;DHT22;447;51.332;6.778;2024-02-28T04:18:24;7.60;99.90
921;DHT22;447;51.332;6.778;2024-02-28T04:20:50;7.70;99.90
921;DHT22;447;51.332;6.778;2024-02-28T04:23:18;7.60;99.90
921;DHT22;447;51.332;6.778;2024-02-28T04:25:44;7.60;99.90
921;DHT22;447;51.332;6.778;2024-02-28T04:28:15;7.60;99.90
921;DHT22;447;51.332;6.778;2024-02-28T04:30:51;7.60;99.90
921;DHT22;447;51.332;6.778;2024-02-28T04:33:19;8.40;99.90
921;DHT22;447;51.332;6.778;2024-02-28T04:35:46;7.60;99.90
921;DHT22;447;51.332;6.778;2024-02-28T04:38:11;7.50;99.90
921;DHT22;447;51.332;6.778;2024-02-28T04:40:40;7.60;99.90
921;DHT22;447;51.332;6.778;2024-02-28T04:43:06;7.60;99.90
921;DHT22;447;51.332;6.778;2024-02-28T04:45:34;7.60;99.90
921;DHT22;447;51.332;6.778;2024-02-28T04:48:03;7.60;99.90
921;DHT22;447;51.332;6.778;2024-02-28T04:50:29;7.60;99.90
921;DHT22;447;51.332;6.778;2024-02-28T04:53:00;7.70;99.90
921;DHT22;447;51.332;6.778;2024-02-28T04:55:26;7.60;99.90
921;DHT22;447;51.332;6.778;2024-02-28T04:57:51;8.00;99.90
921;DHT22;447;51.332;6.778;2024-02-28T05:00:17;7.60;99.90
921;DHT22;447;51.332;6.778;2024-02-28T05:02:48;7.60;99.90
921;DHT22;447;51.332;6.778;2024-02-28T05:05:14;7.60;99.90
921;DHT22;447;51.332;6.778;2024-02-28T05:07:40;7.60;99.90
921;DHT22;447;51.332;6.778;2024-02-28T05:10:09;8.30;99.90
921;DHT22;447;51.332;6.778;2024-02-28T05:12:36;7.60;99.90
921;DHT22;447;51.332;6.778;2024-02-28T05:15:02;7.60;99.90
921;DHT22;447;51.332;6.778;2024-02-28T05:17:31;7.60;99.90
921;DHT22;447;51.332;6.778;2024-02-28T05:19:57;7.50;99.90
921;DHT22;447;51.332;6.778;2024-02-28T05:22:25;7.70;99.90
921;DHT22;447;51.332;6.778;2024-02-28T05:24:51;7.70;99.90
921;DHT22;447;51.332;6.778;2024-02-28T05:27:17;8.10;99.90
921;DHT22;447;51.332;6.778;2024-02-28T05:29:46;7.60;99.90
921;DHT22;447;51.332;6.778;2024-02-28T05:32:14;7.80;99.90
921;DHT22;447;51.332;6.778;2024-02-28T05:34:40;7.60;99.90
921;DHT22;447;51.332;6.778;2024-02-28T05:37:06;8.20;99.90
921;DHT22;447;51.332;6.778;2024-02-28T05:39:32;7.70;99.90
921;DHT22;447;51.332;6.778;2024-02-28T05:42:01;7.80;99.90
921;DHT22;447;51.332;6.778;2024-02-28T05:44:27;8.10;99.90
921;DHT22;447;51.332;6.778;2024-02-28T05:46:55;7.60;99.90
921;DHT22;447;51.332;6.778;2024-02-28T05:49:21;7.50;99.90
921;DHT22;447;51.332;6.778;2024-02-28T05:51:48;7.70;99.90
921;DHT22;447;51.332;6.778;2024-02-28T05:54:14;7.50;99.90
921;DHT22;447;51.332;6.778;2024-02-28T05:56:42;7.60;99.90
921;DHT22;447;51.332;6.778;2024-02-28T05:59:08;7.50;99.90
921;DHT22;447;51.332;6.778;2024-02-28T06:01:34;7.60;99.90
921;DHT22;447;51.332;6.778;2024-02-28T06:04:03;7.50;99.90
921;DHT22;447;51.332;6.778;2024-02-28T06:06:29;7.60;99.90
921;DHT22;447;51.332;6.778;2024-02-28T06:08:55;7.70;99.90
921;DHT22;447;51.332;6.778;2024-02-28T06:11:22;8.00;99.90
921;DHT22;447;51.332;6.778;2024-02-28T06:13:49;7.50;99.90
921;DHT22;447;51.332;6.778;2024-02-28T06:16:18;7.90;99.90
921;DHT22;447;51.332;6.778;2024-02-28T06:18:44;7.50;99.90
921;DHT22;447;51.332;6.778;2024-02-28T06:21:13;7.80;99.90
921;DHT22;447;51.332;6.778;2024-02-28T06:23:39;7.60;99.90
921;DHT22;447;51.332;6.778;2024-02-28T06:26:09;7.60;99.90
921;DHT22;447;51.332;6.778;2024-02-28T06:28:44;7.80;99.90
921;DHT22;447;51.332;6.778;2024-02-28T06:31:16;7.50;99.90
921;DHT22;447;51.332;6.778;2024-02-28T06:33:43;7.50;99.90
921;DHT22;447;51.332;6.778;2024-02-28T06:36:09;7.50;99.90
921;DHT22;447;51.332;6.778;2024-02-28T06:38:35;7.50;99.90
921;DHT22;447;51.332;6.778;2024-02-28T06:41:04;8.10;99.90
921;DHT22;447;51.332;6.778;2024-02-28T06:43:33;7.50;99.90
921;DHT22;447;51.332;6.778;2024-02-28T06:46:00;8.40;99.90
921;DHT22;447;51.332;6.778;2024-02-28T06:48:26;7.60;99.90
921;DHT22;447;51.332;6.778;2024-02-28T06:50:54;7.70;99.90
921;DHT22;447;51.332;6.778;2024-02-28T06:53:20;7.50;99.90
921;DHT22;447;51.332;6.778;2024-02-28T06:55:46;8.10;99.90
921;DHT22;447;51.332;6.778;2024-02-28T06:58:14;8.00;99.90
921;DHT22;447;51.332;6.778;2024-02-28T07:00:44;7.50;99.90
921;DHT22;447;51.332;6.778;2024-02-28T07:03:10;7.70;99.90
921;DHT22;447;51.332;6.778;2024-02-28T07:05:39;7.50;99.90
921;DHT22;447;51.332;6.778;2024-02-28T07:08:07;8.10;99.90
921;DHT22;447;51.332;6.778;2024-02-28T07:10:36;7.60;99.90
921;DHT22;447;51.332;6.778;2024-02-28T07:13:05;8.30;99.90
921;DHT22;447;51.332;6.778;2024-02-28T07:15:31;9.00;99.90
921;DHT22;447;51.332;6.778;2024-02-28T07:17:57;8.10;99.90
921;DHT22;447;51.332;6.778;2024-02-28T07:20:26;7.60;99.90
921;DHT22;447;51.332;6.778;2024-02-28T07:22:52;7.40;99.90
921;DHT22;447;51.332;6.778;2024-02-28T07:25:18;8.40;99.90
921;DHT22;447;51.332;6.778;2024-02-28T07:27:44;8.20;99.90
921;DHT22;447;51.332;6.778;2024-02-28T07:30:13;7.50;99.90
921;DHT22;447;51.332;6.778;2024-02-28T07:32:39;7.50;99.90
921;DHT22;447;51.332;6.778;2024-02-28T07:35:05;7.50;99.90
921;DHT22;447;51.332;6.778;2024-02-28T07:37:31;7.50;99.90
921;DHT22;447;51.332;6.778;2024-02-28T07:39:57;8.10;99.90
921;DHT22;447;51.332;6.778;2024-02-28T07:42:26;7.50;99.90
921;DHT22;447;51.332;6.778;2024-02-28T07:44:54;7.50;99.90
921;DHT22;447;51.332;6.778;2024-02-28T07:47:23;7.50;99.90
921;DHT22;447;51.332;6.778;2024-02-28T07:49:50;7.50;99.90
921;DHT22;447;51.332;6.778;2024-02-28T07:52:16;7.50;99.90
921;DHT22;447;51.332;6.778;2024-02-28T07:54:42;7.50;99.90
921;DHT22;447;51.332;6.778;2024-02-28T07:57:11;7.90;99.90
921;DHT22;447;51.332;6.778;2024-02-28T07:59:43;7.50;99.90
921;DHT22;447;51.332;6.778;2024-02-28T08:02:10;7.80;99.90
921;DHT22;447;51.332;6.778;2024-02-28T08:04:45;7.50;99.90
921;DHT22;447;51.332;6.778;2024-02-28T08:07:21;7.50;99.90
921;DHT22;447;51.332;6.778;2024-02-28T08:09:49;7.50;99.90
921;DHT22;447;51.332;6.778;2024-02-28T08:12:17;7.40;99.90
921;DHT22;447;51.332;6.778;2024-02-28T08:14:43;8.00;99.90
921;DHT22;447;51.332;6.778;2024-02-28T08:17:09;7.50;99.90
921;DHT22;447;51.332;6.778;2024-02-28T08:19:41;7.50;99.90
921;DHT22;447;51.332;6.778;2024-02-28T08:22:13;7.40;99.90
921;DHT22;447;51.332;6.778;2024-02-28T08:24:41;7.70;99.90
921;DHT22;447;51.332;6.778;2024-02-28T08:27:09;8.10;99.90
921;DHT22;447;51.332;6.778;2024-02-28T08:29:37;7.60;99.90
921;DHT22;447;51.332;6.778;2024-02-28T08:32:12;7.50;99.90
921;DHT22;447;51.332;6.778;2024-02-28T08:34:38;7.50;99.90
921;DHT22;447;51.332;6.778;2024-02-28T08:37:04;7.50;99.90
921;DHT22;447;51.332;6.778;2024-02-28T08:39:30;8.10;99.90
921;DHT22;447;51.332;6.778;2024-02-28T08:41:58;7.50;99.90
921;DHT22;447;51.332;6.778;2024-02-28T08:44:24;7.50;99.90
921;DHT22;447;51.332;6.778;2024-02-28T08:46:50;7.50;99.90
921;DHT22;447;51.332;6.778;2024-02-28T08:49:16;7.60;99.90
921;DHT22;447;51.332;6.778;2024-02-28T08:51:42;7.50;99.90
921;DHT22;447;51.332;6.778;2024-02-28T08:54:09;7.50;99.90
921;DHT22;447;51.332;6.778;2024-02-28T08:56:35;7.50;99.90
921;DHT22;447;51.332;6.778;2024-02-28T08:59:03;7.50;99.90
921;DHT22;447;51.332;6.778;2024-02-28T09:01:29;7.60;99.90
921;DHT22;447;51.332;6.778;2024-02-28T09:03:55;7.60;99.90
921;DHT22;447;51.332;6.778;2024-02-28T09:06:21;7.60;99.90
921;DHT22;447;51.332;6.778;2024-02-28T09:08:49;7.60;99.90
921;DHT22;447;51.332;6.778;2024-02-28T09:11:20;7.50;99.90
921;DHT22;447;51.332;6.778;2024-02-28T09:13:52;7.60;99.90
921;DHT22;447;51.332;6.778;2024-02-28T09:16:21;7.50;99.90
921;DHT22;447;51.332;6.778;2024-02-28T09:18:52;7.60;99.90
921;DHT22;447;51.332;6.778;2024-02-28T09:21:18;7.50;99.90
921;DHT22;447;51.332;6.778;2024-02-28T09:23:44;7.70;99.90
921;DHT22;447;51.332;6.778;2024-02-28T09:26:12;7.60;99.90
921;DHT22;447;51.332;6.778;2024-02-28T09:28:38;7.80;99.90
921;DHT22;447;51.332;6.778;2024-02-28T09:31:04;7.60;99.90
921;DHT22;447;51.332;6.778;2024-02-28T09:33:33;7.90;99.90
921;DHT22;447;51.332;6.778;2024-02-28T09:35:58;7.50;99.90
921;DHT22;447;51.332;6.778;2024-02-28T09:38:29;7.60;99.90
921;DHT22;447;51.332;6.778;2024-02-28T09:40:55;7.70;99.90
921;DHT22;447;51.332;6.778;2024-02-28T09:46:03;7.60;99.90
921;DHT22;447;51.332;6.778;2024-02-28T09:48:31;7.60;99.90
921;DHT22;447;51.332;6.778;2024-02-28T09:51:00;7.60;99.90
921;DHT22;447;51.332;6.778;2024-02-28T09:53:27;7.90;99.90
921;DHT22;447;51.332;6.778;2024-02-28T09:55:53;7.70;99.90
921;DHT22;447;51.332;6.778;2024-02-28T09:58:23;7.60;99.90
921;DHT22;447;51.332;6.778;2024-02-28T10:00:55;7.60;99.90
921;DHT22;447;51.332;6.778;2024-02-28T10:03:25;7.60;99.90
921;DHT22;447;51.332;6.778;2024-02-28T10:05:52;7.60;99.90
921;DHT22;447;51.332;6.778;2024-02-28T10:08:20;7.90;99.90
921;DHT22;447;51.332;6.778;2024-02-28T10:10:49;7.70;99.90
921;DHT22;447;51.332;6.778;2024-02-28T10:13:22;7.60;99.90
921;DHT22;447;51.332;6.778;2024-02-28T10:15:49;7.80;99.90
921;DHT22;447;51.332;6.778;2024-02-28T10:18:15;7.60;99.90
921;DHT22;447;51.332;6.778;2024-02-28T10:20:42;8.00;99.90
921;DHT22;447;51.332;6.778;2024-02-28T10:23:08;7.90;99.90
921;DHT22;447;51.332;6.778;2024-02-28T10:25:44;7.50;99.90
921;DHT22;447;51.332;6.778;2024-02-28T10:28:13;8.10;99.90
921;DHT22;447;51.332;6.778;2024-02-28T10:30:44;7.70;99.90
921;DHT22;447;51.332;6.778;2024-02-28T10:33:18;7.70;99.90
921;DHT22;447;51.332;6.778;2024-02-28T10:35:44;7.70;99.90
921;DHT22;447;51.332;6.778;2024-02-28T10:38:14;8.00;99.90
921;DHT22;447;51.332;6.778;2024-02-28T10:40:43;7.70;99.90
921;DHT22;447;51.332;6.778;2024-02-28T10:43:10;7.70;99.90
921;DHT22;447;51.332;6.778;2024-02-28T10:45:42;7.70;99.90
921;DHT22;447;51.332;6.778;2024-02-28T10:48:18;7.70;99.90
921;DHT22;447;51.332;6.778;2024-02-28T10:50:47;8.40;99.90
921;DHT22;447;51.332;6.778;2024-02-28T10:53:21;7.90;99.90
921;DHT22;447;51.332;6.778;2024-02-28T10:55:48;7.80;99.90
921;DHT22;447;51.332;6.778;2024-02-28T10:58:22;7.80;99.90
921;DHT22;447;51.332;6.778;2024-02-28T11:00:50;7.80;99.90
921;DHT22;447;51.332;6.778;2024-02-28T11:03:20;7.80;99.90
921;DHT22;447;51.332;6.778;2024-02-28T11:05:46;7.80;99.90
921;DHT22;447;51.332;6.778;2024-02-28T11:11:04;7.80;99.90
921;DHT22;447;51.332;6.778;2024-02-28T11:13:58;7.90;99.90
921;DHT22;447;51.332;6.778;2024-02-28T11:18:54;7.80;99.90
921;DHT22;447;51.332;6.778;2024-02-28T11:21:26;7.90;99.90
921;DHT22;447;51.332;6.778;2024-02-28T11:24:00;7.90;99.90
921;DHT22;447;51.332;6.778;2024-02-28T11:26:26;7.90;99.90
921;DHT22;447;51.332;6.778;2024-02-28T11:28:57;7.90;99.90
921;DHT22;447;51.332;6.778;2024-02-28T11:31:23;7.90;99.90
921;DHT22;447;51.332;6.778;2024-02-28T11:34:14;7.90;99.90
921;DHT22;447;51.332;6.778;2024-02-28T11:37:04;7.80;99.90
921;DHT22;447;51.332;6.778;2024-02-28T11:39:31;8.00;99.90
921;DHT22;447;51.332;6.778;2024-02-28T11:44:41;8.00;99.90
921;DHT22;447;51.332;6.778;2024-02-28T11:47:11;8.00;99.90
921;DHT22;447;51.332;6.778;2024-02-28T11:49:40;8.20;99.90
921;DHT22;447;51.332;6.778;2024-02-28T11:52:06;8.90;99.90
921;DHT22;447;51.332;6.778;2024-02-28T11:54:34;8.00;99.90
921;DHT22;447;51.332;6.778;2024-02-28T11:57:05;8.00;99.90
921;DHT22;447;51.332;6.778;2024-02-28T11:59:32;8.10;99.90
921;DHT22;447;51.332;6.778;2024-02-28T12:01:58;8.10;99.90
921;DHT22;447;51.332;6.778;2024-02-28T12:04:26;8.10;99.90
921;DHT22;447;51.332;6.778;2024-02-28T12:06:55;8.30;99.90
921;DHT22;447;51.332;6.778;2024-02-28T12:09:22;8.10;99.90
921;DHT22;447;51.332;6.778;2024-02-28T12:11:48;8.10;99.90
921;DHT22;447;51.332;6.778;2024-02-28T12:14:15;8.30;99.90
921;DHT22;447;51.332;6.778;2024-02-28T12:16:43;8.20;99.90
921;DHT22;447;51.332;6.778;2024-02-28T12:19:13;8.20;99.90
921;DHT22;447;51.332;6.778;2024-02-28T12:21:41;8.20;99.90
921;DHT22;447;51.332;6.778;2024-02-28T12:24:07;8.20;99.90
921;DHT22;447;51.332;6.778;2024-02-28T12:26:35;8.20;99.90
921;DHT22;447;51.332;6.778;2024-02-28T12:29:01;8.20;99.90
921;DHT22;447;51.332;6.778;2024-02-28T12:31:29;8.20;99.90
921;DHT22;447;51.332;6.778;2024-02-28T12:33:58;8.20;99.90
921;DHT22;447;51.332;6.778;2024-02-28T12:36:26;8.30;99.90
921;DHT22;447;51.332;6.778;2024-02-28T12:38:54;8.60;99.90
921;DHT22;447;51.332;6.778;2024-02-28T12:41:21;8.30;99.90
921;DHT22;447;51.332;6.778;2024-02-28T12:43:52;8.30;99.90
921;DHT22;447;51.332;6.778;2024-02-28T12:46:18;8.30;99.90
921;DHT22;447;51.332;6.778;2024-02-28T12:48:46;8.30;99.90
921;DHT22;447;51.332;6.778;2024-02-28T12:51:42;8.30;99.90
921;DHT22;447;51.332;6.778;2024-02-28T12:54:18;8.30;99.90
921;DHT22;447;51.332;6.778;2024-02-28T12:56:46;8.40;99.90
921;DHT22;447;51.332;6.778;2024-02-28T12:59:15;8.80;99.90
921;DHT22;447;51.332;6.778;2024-02-28T13:01:43;8.40;99.90
921;DHT22;447;51.332;6.778;2024-02-28T13:04:12;8.50;99.90
921;DHT22;447;51.332;6.778;2024-02-28T13:06:38;8.40;99.90
921;DHT22;447;51.332;6.778;2024-02-28T13:09:06;8.40;99.90
921;DHT22;447;51.332;6.778;2024-02-28T13:11:40;8.40;99.90
921;DHT22;447;51.332;6.778;2024-02-28T13:14:06;8.40;99.90
921;DHT22;447;51.332;6.778;2024-02-28T13:16:34;8.50;99.90
921;DHT22;447;51.332;6.778;2024-02-28T13:19:00;8.40;99.90
921;DHT22;447;51.332;6.778;2024-02-28T13:21:26;8.50;99.90
921;DHT22;447;51.332;6.778;2024-02-28T13:23:53;8.50;99.90
921;DHT22;447;51.332;6.778;2024-02-28T13:26:18;8.80;99.90
921;DHT22;447;51.332;6.778;2024-02-28T13:28:46;8.60;99.90
921;DHT22;447;51.332;6.778;2024-02-28T13:31:13;9.00;99.90
921;DHT22;447;51.332;6.778;2024-02-28T13:33:44;8.50;99.90
921;DHT22;447;51.332;6.778;2024-02-28T13:36:10;8.60;99.90
921;DHT22;447;51.332;6.778;2024-02-28T13:38:40;8.60;99.90
921;DHT22;447;51.332;6.778;2024-02-28T13:41:06;8.60;99.90
921;DHT22;447;51.332;6.778;2024-02-28T13:43:32;8.60;99.90
921;DHT22;447;51.332;6.778;2024-02-28T13:45:58;8.70;99.90
921;DHT22;447;51.332;6.778;2024-02-28T13:48:30;8.70;99.90
921;DHT22;447;51.332;6.778;2024-02-28T13:50:59;8.70;99.90
921;DHT22;447;51.332;6.778;2024-02-28T13:53:25;8.70;99.90
921;DHT22;447;51.332;6.778;2024-02-28T13:55:51;8.70;99.90
921;DHT22;447;51.332;6.778;2024-02-28T13:58:20;8.70;99.90
921;DHT22;447;51.332;6.778;2024-02-28T14:00:46;8.70;99.90
921;DHT22;447;51.332;6.778;2024-02-28T14:03:15;8.70;99.90
921;DHT22;447;51.332;6.778;2024-02-28T14:05:41;8.70;99.90
921;DHT22;447;51.332;6.778;2024-02-28T14:08:09;8.80;99.90
921;DHT22;447;51.332;6.778;2024-02-28T14:10:37;8.80;99.90
921;DHT22;447;51.332;6.778;2024-02-28T14:13:06;8.80;99.90
921;DHT22;447;51.332;6.778;2024-02-28T14:15:34;8.80;99.90
921;DHT22;447;51.332;6.778;2024-02-28T14:18:07;8.80;99.90
921;DHT22;447;51.332;6.778;2024-02-28T14:20:36;8.80;99.90
921;DHT22;447;51.332;6.778;2024-02-28T14:23:05;8.80;99.90
921;DHT22;447;51.332;6.778;2024-02-28T14:25:31;8.80;99.90
921;DHT22;447;51.332;6.778;2024-02-28T14:27:57;8.80;99.90
921;DHT22;447;51.332;6.778;2024-02-28T14:30:24;8.90;99.90
921;DHT22;447;51.332;6.778;2024-02-28T14:32:52;8.90;99.90
921;DHT22;447;51.332;6.778;2024-02-28T14:35:20;8.90;99.90
921;DHT22;447;51.332;6.778;2024-02-28T14:37:47;8.90;99.90
921;DHT22;447;51.332;6.778;2024-02-28T14:40:20;9.10;99.90
921;DHT22;447;51.332;6.778;2024-02-28T14:42:46;8.90;99.90
921;DHT22;447;51.332;6.778;2024-02-28T14:45:13;8.90;99.90
921;DHT22;447;51.332;6.778;2024-02-28T14:47:40;8.90;99.90
921;DHT22;447;51.332;6.778;2024-02-28T14:50:12;9.00;99.90
921;DHT22;447;51.332;6.778;2024-02-28T14:52:39;9.00;99.90
921;DHT22;447;51.332;6.778;2024-02-28T14:55:10;9.00;99.90
921;DHT22;447;51.332;6.778;2024-02-28T14:57:39;9.00;99.90
921;DHT22;447;51.332;6.778;2024-02-28T15:00:13;9.00;99.90
921;DHT22;447;51.332;6.778;2024-02-28T15:03:04;9.00;99.90
921;DHT22;447;51.332;6.778;2024-02-28T15:05:30;9.00;99.90
921;DHT22;447;51.332;6.778;2024-02-28T15:07:56;9.00;99.90
921;DHT22;447;51.332;6.778;2024-02-28T15:10:25;9.10;99.90
921;DHT22;447;51.332;6.778;2024-02-28T15:12:50;9.10;99.90
921;DHT22;447;51.332;6.778;2024-02-28T15:15:16;9.10;99.90
921;DHT22;447;51.332;6.778;2024-02-28T15:17:43;9.10;99.90
921;DHT22;447;51.332;6.778;2024-02-28T15:20:09;9.10;99.90
921;DHT22;447;51.332;6.778;2024-02-28T15:22:37;9.10;99.90
921;DHT22;447;51.332;6.778;2024-02-28T15:25:04;9.20;99.90
921;DHT22;447;51.332;6.778;2024-02-28T15:27:31;9.10;99.90
921;DHT22;447;51.332;6.778;2024-02-28T15:30:01;9.20;99.90
921;DHT22;447;51.332;6.778;2024-02-28T15:32:29;9.20;99.90
921;DHT22;447;51.332;6.778;2024-02-28T15:34:55;9.20;99.90
921;DHT22;447;51.332;6.778;2024-02-28T15:37:28;9.20;99.90
921;DHT22;447;51.332;6.778;2024-02-28T15:39:54;9.20;99.90
921;DHT22;447;51.332;6.778;2024-02-28T15:42:21;9.20;99.90
921;DHT22;447;51.332;6.778;2024-02-28T15:44:47;9.20;99.90
921;DHT22;447;51.332;6.778;2024-02-28T15:47:17;9.30;99.90
921;DHT22;447;51.332;6.778;2024-02-28T15:49:43;9.30;99.90
921;DHT22;447;51.332;6.778;2024-02-28T15:52:12;9.20;99.90
921;DHT22;447;51.332;6.778;2024-02-28T15:54:41;9.20;99.90
921;DHT22;447;51.332;6.778;2024-02-28T15:57:09;9.20;99.90
921;DHT22;447;51.332;6.778;2024-02-28T15:59:38;9.30;99.90
921;DHT22;447;51.332;6.778;2024-02-28T16:02:05;9.40;99.90
921;DHT22;447;51.332;6.778;2024-02-28T16:04:33;9.20;99.90
921;DHT22;447;51.332;6.778;2024-02-28T16:07:00;9.20;99.90
921;DHT22;447;51.332;6.778;2024-02-28T16:09:27;9.20;99.90
921;DHT22;447;51.332;6.778;2024-02-28T16:11:53;9.20;99.90
921;DHT22;447;51.332;6.778;2024-02-28T16:14:22;9.30;99.90
921;DHT22;447;51.332;6.778;2024-02-28T16:16:50;9.30;99.90
921;DHT22;447;51.332;6.778;2024-02-28T16:19:16;9.30;99.90
921;DHT22;447;51.332;6.778;2024-02-28T16:21:44;9.30;99.90
921;DHT22;447;51.332;6.778;2024-02-28T16:24:14;9.30;99.90
921;DHT22;447;51.332;6.778;2024-02-28T16:26:41;9.30;99.90
921;DHT22;447;51.332;6.778;2024-02-28T16:29:11;9.40;99.90
921;DHT22;447;51.332;6.778;2024-02-28T16:31:38;9.30;99.90
921;DHT22;447;51.332;6.778;2024-02-28T16:34:04;9.20;99.90
921;DHT22;447;51.332;6.778;2024-02-28T16:36:30;9.30;99.90
921;DHT22;447;51.332;6.778;2024-02-28T16:38:57;9.30;99.90
921;DHT22;447;51.332;6.778;2024-02-28T16:41:26;9.30;99.90
921;DHT22;447;51.332;6.778;2024-02-28T16:43:52;9.30;99.90
921;DHT22;447;51.332;6.778;2024-02-28T16:46:26;9.30;99.90
921;DHT22;447;51.332;6.778;2024-02-28T16:48:52;9.30;99.90
921;DHT22;447;51.332;6.778;2024-02-28T16:51:18;9.30;99.90
921;DHT22;447;51.332;6.778;2024-02-28T16:53:45;9.30;99.90
921;DHT22;447;51.332;6.778;2024-02-28T16:56:11;9.30;99.90
921;DHT22;447;51.332;6.778;2024-02-28T16:58:37;9.30;99.90
921;DHT22;447;51.332;6.778;2024-02-28T17:01:08;9.30;99.90
921;DHT22;447;51.332;6.778;2024-02-28T17:03:36;9.30;99.90
921;DHT22;447;51.332;6.778;2024-02-28T17:06:05;9.30;99.90
921;DHT22;447;51.332;6.778;2024-02-28T17:08:31;9.30;99.90